sensor_id;sensor_type;location;lat;lon;timestamp;temperature;humidity
67820;DHT22;54618;52.018;5.576;2022-12-18T00:01:33;12.80;44.40
67820;DHT22;54618;52.018;5.576;2022-12-18T00:04:01;12.80;44.40
67820;DHT22;54618;52.018;5.576;2022-12-18T00:06:28;12.80;44.40
67820;DHT22;54618;52.018;5.576;2022-12-18T00:08:55;12.80;44.40
67820;DHT22;54618;52.018;5.576;2022-12-18T00:11:24;12.80;44.40
67820;DHT22;54618;52.018;5.576;2022-12-18T00:13:50;12.80;44.40
67820;DHT22;54618;52.018;5.576;2022-12-18T00:16:18;12.80;44.40
67820;DHT22;54618;52.018;5.576;2022-12-18T00:18:52;12.80;44.40
67820;DHT22;54618;52.018;5.576;2022-12-18T00:21:18;12.70;44.30
67820;DHT22;54618;52.018;5.576;2022-12-18T00:23:45;12.70;44.30
67820;DHT22;54618;52.018;5.576;2022-12-18T00:26:19;12.80;44.40
67820;DHT22;54618;52.018;5.576;2022-12-18T00:28:46;12.80;44.40
67820;DHT22;54618;52.018;5.576;2022-12-18T00:31:14;12.80;44.40
67820;DHT22;54618;52.018;5.576;2022-12-18T00:33:40;12.70;44.30
67820;DHT22;54618;52.018;5.576;2022-12-18T00:36:09;12.80;44.40
67820;DHT22;54618;52.018;5.576;2022-12-18T00:38:35;12.70;44.40
67820;DHT22;54618;52.018;5.576;2022-12-18T00:41:01;12.70;44.40
67820;DHT22;54618;52.018;5.576;2022-12-18T00:43:27;12.70;44.40
67820;DHT22;54618;52.018;5.576;2022-12-18T00:45:52;12.80;44.40
67820;DHT22;54618;52.018;5.576;2022-12-18T00:48:18;12.70;44.30
67820;DHT22;54618;52.018;5.576;2022-12-18T00:50:44;12.80;44.40
67820;DHT22;54618;52.018;5.576;2022-12-18T00:53:09;12.70;44.30
67820;DHT22;54618;52.018;5.576;2022-12-18T00:55:35;12.70;44.30
67820;DHT22;54618;52.018;5.576;2022-12-18T00:58:02;12.70;44.30
67820;DHT22;54618;52.018;5.576;2022-12-18T01:00:27;12.70;44.30
67820;DHT22;54618;52.018;5.576;2022-12-18T01:02:53;12.70;44.30
67820;DHT22;54618;52.018;5.576;2022-12-18T01:05:18;12.70;44.30
67820;DHT22;54618;52.018;5.576;2022-12-18T01:07:44;12.70;44.30
67820;DHT22;54618;52.018;5.576;2022-12-18T01:10:10;12.70;44.30
67820;DHT22;54618;52.018;5.576;2022-12-18T01:12:37;12.70;44.30
67820;DHT22;54618;52.018;5.576;2022-12-18T01:15:04;12.70;44.30
67820;DHT22;54618;52.018;5.576;2022-12-18T01:17:30;12.70;44.30
67820;DHT22;54618;52.018;5.576;2022-12-18T01:19:55;12.70;44.30
67820;DHT22;54618;52.018;5.576;2022-12-18T01:22:21;12.70;44.30
67820;DHT22;54618;52.018;5.576;2022-12-18T01:24:46;12.70;44.30
67820;DHT22;54618;52.018;5.576;2022-12-18T01:27:12;12.70;44.30
67820;DHT22;54618;52.018;5.576;2022-12-18T01:29:37;12.70;44.30
67820;DHT22;54618;52.018;5.576;2022-12-18T01:32:03;12.70;44.30
67820;DHT22;54618;52.018;5.576;2022-12-18T01:34:29;12.80;44.30
67820;DHT22;54618;52.018;5.576;2022-12-18T01:36:54;12.70;44.30
67820;DHT22;54618;52.018;5.576;2022-12-18T01:39:20;12.70;44.20
67820;DHT22;54618;52.018;5.576;2022-12-18T01:41:46;12.70;44.20
67820;DHT22;54618;52.018;5.576;2022-12-18T01:44:56;12.70;44.20
67820;DHT22;54618;52.018;5.576;2022-12-18T01:47:45;12.70;44.20
67820;DHT22;54618;52.018;5.576;2022-12-18T01:52:42;12.70;44.20
67820;DHT22;54618;52.018;5.576;2022-12-18T01:55:12;12.70;44.20
67820;DHT22;54618;52.018;5.576;2022-12-18T01:57:40;12.70;44.20
67820;DHT22;54618;52.018;5.576;2022-12-18T02:00:16;12.70;44.20
67820;DHT22;54618;52.018;5.576;2022-12-18T02:02:43;12.70;44.20
67820;DHT22;54618;52.018;5.576;2022-12-18T02:05:10;12.70;44.20
67820;DHT22;54618;52.018;5.576;2022-12-18T02:13:50;12.70;44.20
67820;DHT22;54618;52.018;5.576;2022-12-18T02:19:09;12.80;44.20
67820;DHT22;54618;52.018;5.576;2022-12-18T02:22:03;12.70;44.20
67820;DHT22;54618;52.018;5.576;2022-12-18T02:27:30;12.70;44.20
67820;DHT22;54618;52.018;5.576;2022-12-18T02:29:59;12.70;44.20
67820;DHT22;54618;52.018;5.576;2022-12-18T02:32:34;12.70;44.20
67820;DHT22;54618;52.018;5.576;2022-12-18T02:35:03;12.70;44.20
67820;DHT22;54618;52.018;5.576;2022-12-18T02:37:30;12.70;44.20
67820;DHT22;54618;52.018;5.576;2022-12-18T02:39:58;12.70;44.20
67820;DHT22;54618;52.018;5.576;2022-12-18T02:42:25;12.70;44.10
67820;DHT22;54618;52.018;5.576;2022-12-18T02:44:55;12.70;44.10
67820;DHT22;54618;52.018;5.576;2022-12-18T02:47:23;12.70;44.20
67820;DHT22;54618;52.018;5.576;2022-12-18T02:50:05;12.70;44.10
67820;DHT22;54618;52.018;5.576;2022-12-18T02:55:38;12.70;44.10
67820;DHT22;54618;52.018;5.576;2022-12-18T03:00:43;12.70;44.10
67820;DHT22;54618;52.018;5.576;2022-12-18T03:03:32;12.70;44.10
67820;DHT22;54618;52.018;5.576;2022-12-18T03:06:06;12.70;44.70
67820;DHT22;54618;52.018;5.576;2022-12-18T03:08:38;12.70;44.10
67820;DHT22;54618;52.018;5.576;2022-12-18T03:11:05;12.70;44.10
67820;DHT22;54618;52.018;5.576;2022-12-18T03:13:49;12.70;44.10
67820;DHT22;54618;52.018;5.576;2022-12-18T03:16:27;12.70;44.00
67820;DHT22;54618;52.018;5.576;2022-12-18T03:19:08;12.70;44.10
67820;DHT22;54618;52.018;5.576;2022-12-18T03:21:45;12.70;44.00
67820;DHT22;54618;52.018;5.576;2022-12-18T03:24:13;12.70;44.00
67820;DHT22;54618;52.018;5.576;2022-12-18T03:26:44;12.70;44.00
67820;DHT22;54618;52.018;5.576;2022-12-18T03:29:16;12.70;44.10
67820;DHT22;54618;52.018;5.576;2022-12-18T03:31:48;12.70;44.00
67820;DHT22;54618;52.018;5.576;2022-12-18T03:34:19;12.70;44.00
67820;DHT22;54618;52.018;5.576;2022-12-18T03:36:45;12.70;44.00
67820;DHT22;54618;52.018;5.576;2022-12-18T03:39:11;12.70;44.00
67820;DHT22;54618;52.018;5.576;2022-12-18T03:46:35;12.70;44.00
67820;DHT22;54618;52.018;5.576;2022-12-18T03:49:11;12.70;44.00
67820;DHT22;54618;52.018;5.576;2022-12-18T03:51:48;12.70;44.00
67820;DHT22;54618;52.018;5.576;2022-12-18T03:54:16;12.70;44.00
67820;DHT22;54618;52.018;5.576;2022-12-18T03:56:46;12.70;44.00
67820;DHT22;54618;52.018;5.576;2022-12-18T03:59:15;12.70;44.00
67820;DHT22;54618;52.018;5.576;2022-12-18T04:01:46;12.70;44.00
67820;DHT22;54618;52.018;5.576;2022-12-18T04:04:13;12.70;44.00
67820;DHT22;54618;52.018;5.576;2022-12-18T04:06:41;12.70;44.00
67820;DHT22;54618;52.018;5.576;2022-12-18T04:09:07;12.70;44.00
67820;DHT22;54618;52.018;5.576;2022-12-18T04:11:33;12.70;44.00
67820;DHT22;54618;52.018;5.576;2022-12-18T04:13:58;12.70;44.00
67820;DHT22;54618;52.018;5.576;2022-12-18T04:16:25;12.70;44.00
67820;DHT22;54618;52.018;5.576;2022-12-18T04:18:51;12.70;44.00
67820;DHT22;54618;52.018;5.576;2022-12-18T04:21:16;12.70;44.60
67820;DHT22;54618;52.018;5.576;2022-12-18T04:23:42;12.70;43.90
67820;DHT22;54618;52.018;5.576;2022-12-18T04:26:07;12.70;44.00
67820;DHT22;54618;52.018;5.576;2022-12-18T04:28:33;12.70;43.90
67820;DHT22;54618;52.018;5.576;2022-12-18T04:30:58;12.70;44.00
67820;DHT22;54618;52.018;5.576;2022-12-18T04:33:24;12.70;43.90
67820;DHT22;54618;52.018;5.576;2022-12-18T04:35:49;12.70;43.90
67820;DHT22;54618;52.018;5.576;2022-12-18T04:38:15;12.70;43.90
67820;DHT22;54618;52.018;5.576;2022-12-18T04:40:41;12.70;43.90
67820;DHT22;54618;52.018;5.576;2022-12-18T04:43:06;12.70;43.90
67820;DHT22;54618;52.018;5.576;2022-12-18T04:45:32;12.70;44.00
67820;DHT22;54618;52.018;5.576;2022-12-18T04:47:58;12.70;43.90
67820;DHT22;54618;52.018;5.576;2022-12-18T04:50:24;12.70;43.90
67820;DHT22;54618;52.018;5.576;2022-12-18T04:52:49;12.70;43.90
67820;DHT22;54618;52.018;5.576;2022-12-18T04:55:15;12.70;43.90
67820;DHT22;54618;52.018;5.576;2022-12-18T04:57:41;12.70;43.90
67820;DHT22;54618;52.018;5.576;2022-12-18T05:00:07;12.70;43.90
67820;DHT22;54618;52.018;5.576;2022-12-18T05:02:32;12.70;43.90
67820;DHT22;54618;52.018;5.576;2022-12-18T05:04:58;12.70;43.90
67820;DHT22;54618;52.018;5.576;2022-12-18T05:07:24;12.70;43.90
67820;DHT22;54618;52.018;5.576;2022-12-18T05:09:49;12.70;43.90
67820;DHT22;54618;52.018;5.576;2022-12-18T05:12:15;12.70;43.90
67820;DHT22;54618;52.018;5.576;2022-12-18T05:14:41;12.70;43.90
67820;DHT22;54618;52.018;5.576;2022-12-18T05:17:06;12.70;43.90
67820;DHT22;54618;52.018;5.576;2022-12-18T05:19:32;12.70;43.90
67820;DHT22;54618;52.018;5.576;2022-12-18T05:21:57;12.70;43.90
67820;DHT22;54618;52.018;5.576;2022-12-18T05:24:23;12.70;43.90
67820;DHT22;54618;52.018;5.576;2022-12-18T05:26:49;12.70;43.80
67820;DHT22;54618;52.018;5.576;2022-12-18T05:29:14;12.70;43.80
67820;DHT22;54618;52.018;5.576;2022-12-18T05:31:40;12.70;43.90
67820;DHT22;54618;52.018;5.576;2022-12-18T05:34:06;12.70;43.90
67820;DHT22;54618;52.018;5.576;2022-12-18T05:36:31;12.70;44.50
67820;DHT22;54618;52.018;5.576;2022-12-18T05:38:57;12.70;43.80
67820;DHT22;54618;52.018;5.576;2022-12-18T05:41:22;12.70;43.80
67820;DHT22;54618;52.018;5.576;2022-12-18T05:43:48;12.70;43.80
67820;DHT22;54618;52.018;5.576;2022-12-18T05:46:16;12.70;43.80
67820;DHT22;54618;52.018;5.576;2022-12-18T05:48:43;12.70;43.90
67820;DHT22;54618;52.018;5.576;2022-12-18T05:51:13;12.70;43.80
67820;DHT22;54618;52.018;5.576;2022-12-18T05:53:40;12.70;43.80
67820;DHT22;54618;52.018;5.576;2022-12-18T05:56:12;12.70;43.80
67820;DHT22;54618;52.018;5.576;2022-12-18T05:58:38;12.70;43.80
67820;DHT22;54618;52.018;5.576;2022-12-18T06:01:13;12.70;43.80
67820;DHT22;54618;52.018;5.576;2022-12-18T06:03:39;12.70;43.80
67820;DHT22;54618;52.018;5.576;2022-12-18T06:06:13;12.70;43.80
67820;DHT22;54618;52.018;5.576;2022-12-18T06:08:38;12.60;43.70
67820;DHT22;54618;52.018;5.576;2022-12-18T06:11:04;12.70;43.70
67820;DHT22;54618;52.018;5.576;2022-12-18T06:13:29;12.70;43.80
67820;DHT22;54618;52.018;5.576;2022-12-18T06:15:55;12.70;43.70
67820;DHT22;54618;52.018;5.576;2022-12-18T06:18:20;12.70;43.80
67820;DHT22;54618;52.018;5.576;2022-12-18T06:20:54;12.70;43.70
67820;DHT22;54618;52.018;5.576;2022-12-18T06:23:20;12.70;43.70
67820;DHT22;54618;52.018;5.576;2022-12-18T06:25:46;12.70;43.80
67820;DHT22;54618;52.018;5.576;2022-12-18T06:28:11;12.70;43.70
67820;DHT22;54618;52.018;5.576;2022-12-18T06:30:37;12.70;43.70
67820;DHT22;54618;52.018;5.576;2022-12-18T06:33:02;12.70;43.70
67820;DHT22;54618;52.018;5.576;2022-12-18T06:35:28;12.60;43.70
67820;DHT22;54618;52.018;5.576;2022-12-18T06:37:53;12.70;43.70
67820;DHT22;54618;52.018;5.576;2022-12-18T06:40:19;12.60;43.60
67820;DHT22;54618;52.018;5.576;2022-12-18T06:42:44;12.60;43.60
67820;DHT22;54618;52.018;5.576;2022-12-18T06:45:10;12.60;43.60
67820;DHT22;54618;52.018;5.576;2022-12-18T06:47:36;12.60;43.70
67820;DHT22;54618;52.018;5.576;2022-12-18T06:50:02;12.60;43.60
67820;DHT22;54618;52.018;5.576;2022-12-18T06:52:28;12.60;43.60
67820;DHT22;54618;52.018;5.576;2022-12-18T06:54:53;12.60;43.60
67820;DHT22;54618;52.018;5.576;2022-12-18T06:57:19;12.60;43.70
67820;DHT22;54618;52.018;5.576;2022-12-18T06:59:44;12.60;43.70
67820;DHT22;54618;52.018;5.576;2022-12-18T07:02:11;12.60;43.60
67820;DHT22;54618;52.018;5.576;2022-12-18T07:04:37;12.60;43.60
67820;DHT22;54618;52.018;5.576;2022-12-18T07:07:03;12.60;43.60
67820;DHT22;54618;52.018;5.576;2022-12-18T07:09:28;12.60;43.60
67820;DHT22;54618;52.018;5.576;2022-12-18T07:11:54;12.60;43.60
67820;DHT22;54618;52.018;5.576;2022-12-18T07:14:19;12.60;43.70
67820;DHT22;54618;52.018;5.576;2022-12-18T07:16:45;12.60;43.60
67820;DHT22;54618;52.018;5.576;2022-12-18T07:19:10;12.60;43.60
67820;DHT22;54618;52.018;5.576;2022-12-18T07:21:36;12.70;43.70
67820;DHT22;54618;52.018;5.576;2022-12-18T07:24:02;12.60;43.60
67820;DHT22;54618;52.018;5.576;2022-12-18T07:26:27;12.60;43.60
67820;DHT22;54618;52.018;5.576;2022-12-18T07:28:55;12.60;43.60
67820;DHT22;54618;52.018;5.576;2022-12-18T07:31:21;12.60;43.60
67820;DHT22;54618;52.018;5.576;2022-12-18T07:33:48;12.60;43.60
67820;DHT22;54618;52.018;5.576;2022-12-18T07:36:14;12.60;43.60
67820;DHT22;54618;52.018;5.576;2022-12-18T07:38:40;12.60;43.50
67820;DHT22;54618;52.018;5.576;2022-12-18T07:41:11;12.70;43.60
67820;DHT22;54618;52.018;5.576;2022-12-18T07:43:38;12.60;43.50
67820;DHT22;54618;52.018;5.576;2022-12-18T07:46:04;12.60;43.50
67820;DHT22;54618;52.018;5.576;2022-12-18T07:48:30;12.60;43.50
67820;DHT22;54618;52.018;5.576;2022-12-18T07:51:04;12.60;43.50
67820;DHT22;54618;52.018;5.576;2022-12-18T07:53:30;12.60;43.50
67820;DHT22;54618;52.018;5.576;2022-12-18T07:55:57;12.70;43.50
67820;DHT22;54618;52.018;5.576;2022-12-18T07:58:22;12.70;43.50
67820;DHT22;54618;52.018;5.576;2022-12-18T08:00:48;12.60;43.50
67820;DHT22;54618;52.018;5.576;2022-12-18T08:03:14;12.60;43.40
67820;DHT22;54618;52.018;5.576;2022-12-18T08:05:39;12.60;43.50
67820;DHT22;54618;52.018;5.576;2022-12-18T08:08:05;12.60;43.50
67820;DHT22;54618;52.018;5.576;2022-12-18T08:10:30;12.60;43.50
67820;DHT22;54618;52.018;5.576;2022-12-18T08:12:56;12.60;43.50
67820;DHT22;54618;52.018;5.576;2022-12-18T08:15:22;12.70;43.50
67820;DHT22;54618;52.018;5.576;2022-12-18T08:17:47;12.70;43.50
67820;DHT22;54618;52.018;5.576;2022-12-18T08:20:13;12.60;43.50
67820;DHT22;54618;52.018;5.576;2022-12-18T08:22:43;12.60;43.50
67820;DHT22;54618;52.018;5.576;2022-12-18T08:25:09;12.60;44.10
67820;DHT22;54618;52.018;5.576;2022-12-18T08:27:36;12.60;43.50
67820;DHT22;54618;52.018;5.576;2022-12-18T08:30:03;12.60;43.50
67820;DHT22;54618;52.018;5.576;2022-12-18T08:32:28;12.70;43.50
67820;DHT22;54618;52.018;5.576;2022-12-18T08:34:54;12.70;43.50
67820;DHT22;54618;52.018;5.576;2022-12-18T08:37:19;12.70;43.40
67820;DHT22;54618;52.018;5.576;2022-12-18T08:39:45;12.70;43.40
67820;DHT22;54618;52.018;5.576;2022-12-18T08:42:10;12.70;43.40
67820;DHT22;54618;52.018;5.576;2022-12-18T08:44:55;12.70;43.40
67820;DHT22;54618;52.018;5.576;2022-12-18T08:47:20;12.60;43.30
67820;DHT22;54618;52.018;5.576;2022-12-18T08:49:46;12.70;43.40
67820;DHT22;54618;52.018;5.576;2022-12-18T08:52:14;12.60;43.30
67820;DHT22;54618;52.018;5.576;2022-12-18T08:54:40;12.70;43.40
67820;DHT22;54618;52.018;5.576;2022-12-18T08:57:05;12.70;43.40
67820;DHT22;54618;52.018;5.576;2022-12-18T08:59:31;12.70;43.40
67820;DHT22;54618;52.018;5.576;2022-12-18T09:01:57;12.60;43.30
67820;DHT22;54618;52.018;5.576;2022-12-18T09:04:22;12.60;43.40
67820;DHT22;54618;52.018;5.576;2022-12-18T09:06:48;12.70;43.40
67820;DHT22;54618;52.018;5.576;2022-12-18T09:09:14;12.60;43.30
67820;DHT22;54618;52.018;5.576;2022-12-18T09:11:39;12.70;43.40
67820;DHT22;54618;52.018;5.576;2022-12-18T09:14:05;12.60;43.30
67820;DHT22;54618;52.018;5.576;2022-12-18T09:16:31;12.70;43.40
67820;DHT22;54618;52.018;5.576;2022-12-18T09:18:57;12.70;43.40
67820;DHT22;54618;52.018;5.576;2022-12-18T09:21:27;12.60;43.30
67820;DHT22;54618;52.018;5.576;2022-12-18T09:23:54;12.70;43.40
67820;DHT22;54618;52.018;5.576;2022-12-18T09:26:21;12.70;43.40
67820;DHT22;54618;52.018;5.576;2022-12-18T09:28:47;12.70;43.40
67820;DHT22;54618;52.018;5.576;2022-12-18T09:31:16;12.70;43.40
67820;DHT22;54618;52.018;5.576;2022-12-18T09:33:41;12.70;43.40
67820;DHT22;54618;52.018;5.576;2022-12-18T09:36:09;12.70;44.00
67820;DHT22;54618;52.018;5.576;2022-12-18T09:38:35;12.70;43.30
67820;DHT22;54618;52.018;5.576;2022-12-18T09:41:06;12.70;43.40
67820;DHT22;54618;52.018;5.576;2022-12-18T09:43:46;12.70;43.40
67820;DHT22;54618;52.018;5.576;2022-12-18T09:46:19;12.70;43.40
67820;DHT22;54618;52.018;5.576;2022-12-18T09:48:48;12.70;43.40
67820;DHT22;54618;52.018;5.576;2022-12-18T09:53:47;12.70;43.30
67820;DHT22;54618;52.018;5.576;2022-12-18T09:56:19;12.70;43.40
67820;DHT22;54618;52.018;5.576;2022-12-18T09:58:55;12.70;43.40
67820;DHT22;54618;52.018;5.576;2022-12-18T10:01:23;12.70;43.40
67820;DHT22;54618;52.018;5.576;2022-12-18T10:03:49;12.70;43.40
67820;DHT22;54618;52.018;5.576;2022-12-18T10:09:01;12.70;43.40
67820;DHT22;54618;52.018;5.576;2022-12-18T10:14:23;12.70;43.70
67820;DHT22;54618;52.018;5.576;2022-12-18T10:17:18;12.70;43.30
67820;DHT22;54618;52.018;5.576;2022-12-18T10:20:02;12.70;43.30
67820;DHT22;54618;52.018;5.576;2022-12-18T10:27:47;12.70;43.40
67820;DHT22;54618;52.018;5.576;2022-12-18T10:30:16;12.70;43.40
67820;DHT22;54618;52.018;5.576;2022-12-18T10:32:42;12.70;43.40
67820;DHT22;54618;52.018;5.576;2022-12-18T10:35:18;12.70;43.40
67820;DHT22;54618;52.018;5.576;2022-12-18T10:40:34;12.70;43.40
67820;DHT22;54618;52.018;5.576;2022-12-18T10:43:13;12.70;43.40
67820;DHT22;54618;52.018;5.576;2022-12-18T10:45:40;12.70;43.40
67820;DHT22;54618;52.018;5.576;2022-12-18T10:48:18;12.70;43.40
67820;DHT22;54618;52.018;5.576;2022-12-18T10:50:48;12.70;43.40
67820;DHT22;54618;52.018;5.576;2022-12-18T10:53:23;12.70;43.40
67820;DHT22;54618;52.018;5.576;2022-12-18T10:55:49;12.70;43.40
67820;DHT22;54618;52.018;5.576;2022-12-18T10:58:18;12.70;43.40
67820;DHT22;54618;52.018;5.576;2022-12-18T11:01:02;12.70;43.40
67820;DHT22;54618;52.018;5.576;2022-12-18T11:03:33;12.70;43.40
67820;DHT22;54618;52.018;5.576;2022-12-18T11:06:24;12.70;43.40
67820;DHT22;54618;52.018;5.576;2022-12-18T11:09:00;12.70;43.40
67820;DHT22;54618;52.018;5.576;2022-12-18T11:11:26;12.70;43.40
67820;DHT22;54618;52.018;5.576;2022-12-18T11:16:21;12.70;43.40
67820;DHT22;54618;52.018;5.576;2022-12-18T11:18:46;12.80;43.40
67820;DHT22;54618;52.018;5.576;2022-12-18T11:21:13;12.80;43.40
67820;DHT22;54618;52.018;5.576;2022-12-18T11:23:48;12.70;43.40
67820;DHT22;54618;52.018;5.576;2022-12-18T11:26:15;12.80;43.40
67820;DHT22;54618;52.018;5.576;2022-12-18T11:28:47;12.80;43.40
67820;DHT22;54618;52.018;5.576;2022-12-18T11:31:21;12.80;43.40
67820;DHT22;54618;52.018;5.576;2022-12-18T11:34:24;12.80;43.40
67820;DHT22;54618;52.018;5.576;2022-12-18T11:36:52;12.80;43.40
67820;DHT22;54618;52.018;5.576;2022-12-18T11:39:46;12.80;43.40
67820;DHT22;54618;52.018;5.576;2022-12-18T11:48:17;12.80;43.40
67820;DHT22;54618;52.018;5.576;2022-12-18T11:50:51;12.80;43.40
67820;DHT22;54618;52.018;5.576;2022-12-18T11:53:17;12.80;43.40
67820;DHT22;54618;52.018;5.576;2022-12-18T11:56:14;12.80;43.40
67820;DHT22;54618;52.018;5.576;2022-12-18T12:01:40;12.80;43.30
67820;DHT22;54618;52.018;5.576;2022-12-18T12:07:18;12.80;43.30
67820;DHT22;54618;52.018;5.576;2022-12-18T12:18:18;12.80;43.40
67820;DHT22;54618;52.018;5.576;2022-12-18T12:23:48;12.80;43.30
67820;DHT22;54618;52.018;5.576;2022-12-18T12:26:45;12.80;43.30
67820;DHT22;54618;52.018;5.576;2022-12-18T12:29:30;12.80;43.40
67820;DHT22;54618;52.018;5.576;2022-12-18T12:35:13;12.80;43.40
67820;DHT22;54618;52.018;5.576;2022-12-18T12:40:28;12.80;43.40
67820;DHT22;54618;52.018;5.576;2022-12-18T12:42:58;12.80;43.40
67820;DHT22;54618;52.018;5.576;2022-12-18T12:45:51;12.80;43.40
67820;DHT22;54618;52.018;5.576;2022-12-18T12:48:41;12.80;43.40
67820;DHT22;54618;52.018;5.576;2022-12-18T12:51:22;12.90;43.40
67820;DHT22;54618;52.018;5.576;2022-12-18T12:53:49;12.80;43.40
67820;DHT22;54618;52.018;5.576;2022-12-18T12:56:18;12.90;43.40
67820;DHT22;54618;52.018;5.576;2022-12-18T13:01:59;12.90;43.40
67820;DHT22;54618;52.018;5.576;2022-12-18T13:04:33;12.90;43.40
67820;DHT22;54618;52.018;5.576;2022-12-18T13:07:16;12.90;43.40
67820;DHT22;54618;52.018;5.576;2022-12-18T13:13:00;12.90;43.40
67820;DHT22;54618;52.018;5.576;2022-12-18T13:15:41;12.90;43.40
67820;DHT22;54618;52.018;5.576;2022-12-18T13:20:42;12.90;43.40
67820;DHT22;54618;52.018;5.576;2022-12-18T13:25:51;12.90;43.40
67820;DHT22;54618;52.018;5.576;2022-12-18T13:28:26;12.90;43.40
67820;DHT22;54618;52.018;5.576;2022-12-18T13:31:08;12.90;43.40
67820;DHT22;54618;52.018;5.576;2022-12-18T13:33:41;12.90;43.40
67820;DHT22;54618;52.018;5.576;2022-12-18T13:38:44;12.90;43.40
67820;DHT22;54618;52.018;5.576;2022-12-18T13:41:26;12.90;43.40
67820;DHT22;54618;52.018;5.576;2022-12-18T13:43:57;12.90;43.40
67820;DHT22;54618;52.018;5.576;2022-12-18T13:46:46;12.90;43.50
67820;DHT22;54618;52.018;5.576;2022-12-18T13:51:40;12.90;43.40
67820;DHT22;54618;52.018;5.576;2022-12-18T13:54:34;12.90;44.10
67820;DHT22;54618;52.018;5.576;2022-12-18T13:57:00;12.90;43.40
67820;DHT22;54618;52.018;5.576;2022-12-18T13:59:39;12.90;43.50
67820;DHT22;54618;52.018;5.576;2022-12-18T14:02:14;12.90;43.50
67820;DHT22;54618;52.018;5.576;2022-12-18T14:04:40;12.90;43.50
67820;DHT22;54618;52.018;5.576;2022-12-18T14:07:12;12.90;44.10
67820;DHT22;54618;52.018;5.576;2022-12-18T14:09:59;12.90;43.50
67820;DHT22;54618;52.018;5.576;2022-12-18T14:12:33;12.90;43.50
67820;DHT22;54618;52.018;5.576;2022-12-18T14:15:41;12.90;43.50
67820;DHT22;54618;52.018;5.576;2022-12-18T14:20:52;12.80;43.40
67820;DHT22;54618;52.018;5.576;2022-12-18T14:23:38;12.90;43.50
67820;DHT22;54618;52.018;5.576;2022-12-18T14:28:45;12.80;43.20
67820;DHT22;54618;52.018;5.576;2022-12-18T14:31:23;12.80;43.20
67820;DHT22;54618;52.018;5.576;2022-12-18T14:33:49;12.80;43.20
67820;DHT22;54618;52.018;5.576;2022-12-18T14:36:18;12.80;43.20
67820;DHT22;54618;52.018;5.576;2022-12-18T14:38:51;12.80;43.20
67820;DHT22;54618;52.018;5.576;2022-12-18T14:41:18;12.80;43.20
67820;DHT22;54618;52.018;5.576;2022-12-18T14:43:47;12.80;43.20
67820;DHT22;54618;52.018;5.576;2022-12-18T14:46:45;12.80;43.10
67820;DHT22;54618;52.018;5.576;2022-12-18T14:49:29;12.80;43.10
67820;DHT22;54618;52.018;5.576;2022-12-18T14:52:00;12.80;43.10
67820;DHT22;54618;52.018;5.576;2022-12-18T14:54:27;12.80;43.10
67820;DHT22;54618;52.018;5.576;2022-12-18T14:57:23;12.80;43.00
67820;DHT22;54618;52.018;5.576;2022-12-18T14:59:49;12.80;43.00
67820;DHT22;54618;52.018;5.576;2022-12-18T15:02:20;12.80;43.10
67820;DHT22;54618;52.018;5.576;2022-12-18T15:04:46;12.80;43.10
67820;DHT22;54618;52.018;5.576;2022-12-18T15:07:17;12.80;43.00
67820;DHT22;54618;52.018;5.576;2022-12-18T15:10:00;12.70;43.00
67820;DHT22;54618;52.018;5.576;2022-12-18T15:15:01;12.70;43.00
67820;DHT22;54618;52.018;5.576;2022-12-18T15:17:27;12.70;43.00
67820;DHT22;54618;52.018;5.576;2022-12-18T15:19:59;12.70;42.70
67820;DHT22;54618;52.018;5.576;2022-12-18T15:22:35;12.60;42.70
67820;DHT22;54618;52.018;5.576;2022-12-18T15:25:02;12.60;42.70
67820;DHT22;54618;52.018;5.576;2022-12-18T15:27:33;12.60;42.80
67820;DHT22;54618;52.018;5.576;2022-12-18T15:32:38;12.60;42.80
67820;DHT22;54618;52.018;5.576;2022-12-18T15:35:15;12.60;42.90
67820;DHT22;54618;52.018;5.576;2022-12-18T15:37:41;12.60;42.80
67820;DHT22;54618;52.018;5.576;2022-12-18T15:40:11;12.60;42.80
67820;DHT22;54618;52.018;5.576;2022-12-18T15:42:37;12.60;42.80
67820;DHT22;54618;52.018;5.576;2022-12-18T15:45:21;12.60;42.80
67820;DHT22;54618;52.018;5.576;2022-12-18T15:47:46;12.60;42.80
67820;DHT22;54618;52.018;5.576;2022-12-18T15:50:12;12.60;42.80
67820;DHT22;54618;52.018;5.576;2022-12-18T15:52:43;12.60;42.80
67820;DHT22;54618;52.018;5.576;2022-12-18T15:55:12;12.60;43.10
67820;DHT22;54618;52.018;5.576;2022-12-18T15:57:56;12.60;42.70
67820;DHT22;54618;52.018;5.576;2022-12-18T16:00:22;12.60;42.70
67820;DHT22;54618;52.018;5.576;2022-12-18T16:02:47;12.60;42.70
67820;DHT22;54618;52.018;5.576;2022-12-18T16:05:18;12.60;42.70
67820;DHT22;54618;52.018;5.576;2022-12-18T16:07:44;12.60;42.70
67820;DHT22;54618;52.018;5.576;2022-12-18T16:10:10;12.60;42.70
67820;DHT22;54618;52.018;5.576;2022-12-18T16:12:36;12.60;42.70
67820;DHT22;54618;52.018;5.576;2022-12-18T16:15:02;12.60;42.70
67820;DHT22;54618;52.018;5.576;2022-12-18T16:17:28;12.60;42.80
67820;DHT22;54618;52.018;5.576;2022-12-18T16:19:54;12.60;42.70
67820;DHT22;54618;52.018;5.576;2022-12-18T16:22:22;12.60;42.70
67820;DHT22;54618;52.018;5.576;2022-12-18T16:24:49;12.60;42.60
67820;DHT22;54618;52.018;5.576;2022-12-18T16:27:15;12.60;42.60
67820;DHT22;54618;52.018;5.576;2022-12-18T16:29:41;12.60;42.60
67820;DHT22;54618;52.018;5.576;2022-12-18T16:32:14;12.60;42.60
67820;DHT22;54618;52.018;5.576;2022-12-18T16:34:41;12.60;42.60
67820;DHT22;54618;52.018;5.576;2022-12-18T16:37:08;12.60;42.60
67820;DHT22;54618;52.018;5.576;2022-12-18T16:39:35;12.60;42.60
67820;DHT22;54618;52.018;5.576;2022-12-18T16:42:06;12.60;42.60
67820;DHT22;54618;52.018;5.576;2022-12-18T16:44:34;12.60;42.50
67820;DHT22;54618;52.018;5.576;2022-12-18T16:47:00;12.60;42.50
67820;DHT22;54618;52.018;5.576;2022-12-18T16:49:27;12.60;42.60
67820;DHT22;54618;52.018;5.576;2022-12-18T16:51:53;12.60;42.50
67820;DHT22;54618;52.018;5.576;2022-12-18T16:54:19;12.60;42.50
67820;DHT22;54618;52.018;5.576;2022-12-18T16:56:44;12.60;42.50
67820;DHT22;54618;52.018;5.576;2022-12-18T16:59:14;12.60;42.50
67820;DHT22;54618;52.018;5.576;2022-12-18T17:01:40;12.60;42.50
67820;DHT22;54618;52.018;5.576;2022-12-18T17:04:06;12.50;42.50
67820;DHT22;54618;52.018;5.576;2022-12-18T17:06:35;12.50;42.40
67820;DHT22;54618;52.018;5.576;2022-12-18T17:09:05;12.60;42.50
67820;DHT22;54618;52.018;5.576;2022-12-18T17:11:33;12.50;42.40
67820;DHT22;54618;52.018;5.576;2022-12-18T17:14:05;12.50;42.40
67820;DHT22;54618;52.018;5.576;2022-12-18T17:16:31;12.50;42.40
67820;DHT22;54618;52.018;5.576;2022-12-18T17:18:57;12.50;42.40
67820;DHT22;54618;52.018;5.576;2022-12-18T17:21:22;12.50;42.40
67820;DHT22;54618;52.018;5.576;2022-12-18T17:23:48;12.50;42.40
67820;DHT22;54618;52.018;5.576;2022-12-18T17:26:13;12.50;42.40